Time;durP1;ratioP1;P1;durP2;ratioP2;P2;SDS_P1;SDS_P2;PMS_P1;PMS_P2;Temp;Humidity;BMP_temperature;BMP_pressure;BME280_temperature;BME280_humidity;BME280_pressure;Samples;Min_cycle;Max_cycle;Signal;HPM_P1;HPM_P2
2022/01/31 00:02:16;;;;;;;19.85;4.07;;;;;;;;;;4984291;28;20030;-85
2022/01/31 00:04:42;;;;;;;22.15;4.55;;;;;;;;;;4979575;28;20556;-85
2022/01/31 00:07:10;;;;;;;15.43;4.63;;;;;;;;;;4973809;28;20026;-86
2022/01/31 00:09:36;;;;;;;32.67;5.20;;;;;;;;;;4984343;28;20485;-86
2022/01/31 00:12:07;;;;;;;19.15;4.40;;;;;;;;;;4985311;28;20686;-86
2022/01/31 00:14:39;;;;;;;35.35;4.25;;;;;;;;;;4968430;28;20039;-85
2022/01/31 00:17:05;;;;;;;30.98;4.53;;;;;;;;;;4973893;28;20034;-86
2022/01/31 00:19:33;;;;;;;11.32;2.80;;;;;;;;;;4970213;28;20024;-85
2022/01/31 00:21:59;;;;;;;15.82;3.03;;;;;;;;;;4984242;28;20029;-86
2022/01/31 00:24:25;;;;;;;27.55;3.97;;;;;;;;;;4970196;28;20026;-86
2022/01/31 00:26:51;;;;;;;15.20;4.00;;;;;;;;;;4979042;28;20030;-86
2022/01/31 00:29:17;;;;;;;19.77;4.15;;;;;;;;;;5002148;28;20430;-85
2022/01/31 00:31:44;;;;;;;12.90;4.57;;;;;;;;;;4987952;28;20034;-86
2022/01/31 00:34:10;;;;;;;23.85;5.07;;;;;;;;;;4991173;28;20066;-86
2022/01/31 00:36:36;;;;;;;19.27;3.60;;;;;;;;;;4953993;28;20034;-86
2022/01/31 00:39:03;;;;;;;11.15;2.50;;;;;;;;;;4964449;28;20038;-86
2022/01/31 00:41:29;;;;;;;12.38;3.42;;;;;;;;;;4960284;28;20466;-86
2022/01/31 00:44:00;;;;;;;11.38;3.22;;;;;;;;;;4967235;28;20030;-85
2022/01/31 00:46:36;;;;;;;17.38;4.40;;;;;;;;;;4966939;28;20073;-85
2022/01/31 00:49:02;;;;;;;8.02;2.17;;;;;;;;;;4969961;28;20041;-86
2022/01/31 00:51:28;;;;;;;20.75;3.70;;;;;;;;;;4967742;28;20030;-86
2022/01/31 00:53:54;;;;;;;16.40;3.90;;;;;;;;;;4976579;28;20081;-86
2022/01/31 00:56:20;;;;;;;4.40;2.72;;;;;;;;;;4977658;28;20158;-85
2022/01/31 00:58:46;;;;;;;24.65;4.78;;;;;;;;;;4958945;28;20102;-86
2022/01/31 01:01:12;;;;;;;17.48;4.90;;;;;;;;;;4962710;28;20396;-85
2022/01/31 01:03:38;;;;;;;20.45;4.13;;;;;;;;;;4950282;28;20027;-85
2022/01/31 01:06:04;;;;;;;8.57;2.83;;;;;;;;;;4951741;28;20057;-85
2022/01/31 01:08:31;;;;;;;38.85;5.70;;;;;;;;;;4946476;28;20484;-85
2022/01/31 01:10:57;;;;;;;14.70;4.43;;;;;;;;;;4946043;28;20038;-85
2022/01/31 01:13:23;;;;;;;27.10;4.93;;;;;;;;;;4949702;28;20031;-86
2022/01/31 01:15:49;;;;;;;13.02;3.80;;;;;;;;;;4963949;28;20038;-85
2022/01/31 01:18:15;;;;;;;17.08;5.43;;;;;;;;;;4948737;28;20035;-85
2022/01/31 01:20:42;;;;;;;19.42;5.82;;;;;;;;;;4952345;28;20034;-85
2022/01/31 01:23:08;;;;;;;21.25;6.63;;;;;;;;;;4980922;28;20046;-85
2022/01/31 01:25:34;;;;;;;9.18;3.63;;;;;;;;;;4946973;28;20486;-84
2022/01/31 01:28:01;;;;;;;13.70;4.03;;;;;;;;;;4949226;28;20042;-84
2022/01/31 01:30:27;;;;;;;16.15;4.50;;;;;;;;;;4962033;28;20093;-84
2022/01/31 01:33:04;;;;;;;17.20;4.75;;;;;;;;;;4950168;28;20500;-85
2022/01/31 01:35:33;;;;;;;19.90;4.90;;;;;;;;;;4940632;28;20467;-84
2022/01/31 01:38:04;;;;;;;21.40;5.05;;;;;;;;;;4946746;28;20493;-84
2022/01/31 01:40:30;;;;;;;18.63;5.65;;;;;;;;;;4969427;28;20106;-84
2022/01/31 01:42:56;;;;;;;20.35;6.13;;;;;;;;;;4943712;28;20055;-83
2022/01/31 01:45:22;;;;;;;27.67;6.43;;;;;;;;;;4949878;28;20081;-83
2022/01/31 01:47:48;;;;;;;20.27;5.75;;;;;;;;;;4946016;28;20394;-82
2022/01/31 01:50:14;;;;;;;28.63;7.10;;;;;;;;;;4947610;28;20031;-82
2022/01/31 01:52:40;;;;;;;24.15;7.63;;;;;;;;;;4948441;28;20031;-81
2022/01/31 01:55:07;;;;;;;19.25;5.70;;;;;;;;;;4969004;28;20059;-82
2022/01/31 01:57:33;;;;;;;13.55;4.95;;;;;;;;;;4942451;28;20065;-81
2022/01/31 01:59:59;;;;;;;18.45;6.60;;;;;;;;;;4966591;28;20066;-81
2022/01/31 02:02:25;;;;;;;14.45;6.40;;;;;;;;;;4950743;28;20034;-81
2022/01/31 02:04:51;;;;;;;22.27;8.38;;;;;;;;;;4946472;28;20030;-80
2022/01/31 02:07:18;;;;;;;13.45;6.45;;;;;;;;;;4965693;28;20031;-80
2022/01/31 02:09:52;;;;;;;28.38;7.00;;;;;;;;;;4947388;28;20098;-80
2022/01/31 02:12:18;;;;;;;8.68;4.43;;;;;;;;;;4949123;28;20450;-81
2022/01/31 02:14:44;;;;;;;20.45;7.88;;;;;;;;;;4945325;28;20054;-81
2022/01/31 02:17:10;;;;;;;15.65;7.63;;;;;;;;;;4949946;28;20030;-81
2022/01/31 02:19:36;;;;;;;15.40;7.50;;;;;;;;;;4944340;28;20027;-81
2022/01/31 02:22:02;;;;;;;13.65;6.03;;;;;;;;;;4962624;28;20243;-81
2022/01/31 02:24:30;;;;;;;23.15;6.43;;;;;;;;;;4950402;28;20729;-80
2022/01/31 02:26:57;;;;;;;16.60;6.97;;;;;;;;;;4942409;28;20030;-80
2022/01/31 02:29:23;;;;;;;18.58;7.00;;;;;;;;;;4949137;28;20073;-80
2022/01/31 02:31:49;;;;;;;23.75;8.75;;;;;;;;;;4945564;28;20058;-80
2022/01/31 02:34:16;;;;;;;16.17;6.22;;;;;;;;;;4964265;28;20094;-81
2022/01/31 02:36:43;;;;;;;10.05;5.72;;;;;;;;;;4941348;28;20030;-81
2022/01/31 02:39:09;;;;;;;18.48;8.45;;;;;;;;;;4950837;28;20031;-81
2022/01/31 02:41:45;;;;;;;12.85;6.78;;;;;;;;;;4941981;28;20038;-80
2022/01/31 02:44:15;;;;;;;18.52;5.72;;;;;;;;;;4949212;28;20023;-80
2022/01/31 02:46:50;;;;;;;10.40;4.63;;;;;;;;;;4968901;28;20046;-80
2022/01/31 02:49:19;;;;;;;20.73;8.40;;;;;;;;;;4960904;28;20034;-80
2022/01/31 02:51:49;;;;;;;15.15;7.43;;;;;;;;;;4966018;28;20058;-80
2022/01/31 02:54:29;;;;;;;17.90;6.25;;;;;;;;;;4958838;28;20537;-80
2022/01/31 02:57:02;;;;;;;16.20;5.93;;;;;;;;;;4967461;28;20205;-81
2022/01/31 02:59:28;;;;;;;8.70;4.25;;;;;;;;;;4982356;28;20109;-81
2022/01/31 03:01:54;;;;;;;13.00;3.15;;;;;;;;;;4967707;28;21446;-80
2022/01/31 03:04:20;;;;;;;19.83;9.10;;;;;;;;;;4969467;28;20088;-81
2022/01/31 03:06:49;;;;;;;19.95;7.97;;;;;;;;;;4984651;28;20018;-81
2022/01/31 03:09:15;;;;;;;16.67;7.85;;;;;;;;;;4987252;28;20065;-81
2022/01/31 03:11:41;;;;;;;18.63;7.30;;;;;;;;;;4987962;28;20490;-80
2022/01/31 03:14:07;;;;;;;18.33;7.82;;;;;;;;;;4985510;28;20073;-80
2022/01/31 03:16:34;;;;;;;6.03;4.07;;;;;;;;;;4986339;28;20066;-80
2022/01/31 03:19:01;;;;;;;11.63;4.88;;;;;;;;;;4986389;28;20025;-80
2022/01/31 03:21:27;;;;;;;18.63;7.40;;;;;;;;;;4982993;28;20026;-80
2022/01/31 03:23:53;;;;;;;32.75;8.15;;;;;;;;;;4999623;28;20042;-79
2022/01/31 03:26:19;;;;;;;17.25;7.40;;;;;;;;;;4985412;28;20022;-80
2022/01/31 03:28:45;;;;;;;15.05;6.65;;;;;;;;;;4968096;28;20046;-80
2022/01/31 03:31:12;;;;;;;9.60;5.05;;;;;;;;;;4998169;28;20121;-80
2022/01/31 03:33:38;;;;;;;6.35;3.60;;;;;;;;;;4977575;28;20038;-80
2022/01/31 03:36:04;;;;;;;15.63;5.63;;;;;;;;;;4968920;28;20560;-81
2022/01/31 03:38:30;;;;;;;9.95;4.25;;;;;;;;;;4984441;28;20509;-81
2022/01/31 03:40:56;;;;;;;9.18;3.90;;;;;;;;;;4970032;28;20029;-81
2022/01/31 03:43:22;;;;;;;15.07;5.75;;;;;;;;;;4981417;28;20025;-81
2022/01/31 03:45:48;;;;;;;18.35;5.88;;;;;;;;;;4999670;28;20132;-81
2022/01/31 03:48:14;;;;;;;7.82;4.68;;;;;;;;;;4984998;28;20037;-81
2022/01/31 03:50:40;;;;;;;17.30;5.72;;;;;;;;;;4985234;28;20080;-82
2022/01/31 03:53:06;;;;;;;17.85;4.65;;;;;;;;;;4994433;28;20521;-82
2022/01/31 03:55:32;;;;;;;10.07;2.53;;;;;;;;;;4969692;28;20046;-82
2022/01/31 03:57:58;;;;;;;12.95;4.15;;;;;;;;;;4949531;28;20428;-82
2022/01/31 04:00:25;;;;;;;20.52;4.95;;;;;;;;;;4963339;28;20027;-81
2022/01/31 04:02:51;;;;;;;17.73;3.30;;;;;;;;;;4950158;28;20086;-82
2022/01/31 04:05:17;;;;;;;19.75;3.45;;;;;;;;;;4945707;28;20034;-80
2022/01/31 04:07:43;;;;;;;15.80;2.35;;;;;;;;;;4968502;28;20066;-79
2022/01/31 04:10:10;;;;;;;13.02;1.92;;;;;;;;;;4946220;28;20039;-79
2022/01/31 04:12:36;;;;;;;12.20;3.38;;;;;;;;;;4943713;28;20041;-79
2022/01/31 04:15:03;;;;;;;21.98;1.90;;;;;;;;;;4953005;28;20026;-80
2022/01/31 04:17:31;;;;;;;5.13;1.90;;;;;;;;;;4947187;28;20498;-81
2022/01/31 04:19:57;;;;;;;8.00;2.55;;;;;;;;;;4949673;28;20048;-81
2022/01/31 04:22:26;;;;;;;21.25;2.22;;;;;;;;;;4964178;28;20054;-81
2022/01/31 04:24:58;;;;;;;21.17;4.30;;;;;;;;;;4948742;28;20042;-81
2022/01/31 04:27:28;;;;;;;26.75;2.75;;;;;;;;;;4964623;28;20730;-81
2022/01/31 04:29:54;;;;;;;33.35;3.67;;;;;;;;;;4979847;28;20015;-81
2022/01/31 04:32:20;;;;;;;21.08;2.50;;;;;;;;;;4947888;28;20375;-81
2022/01/31 04:34:46;;;;;;;22.10;2.83;;;;;;;;;;4945031;28;20026;-81
2022/01/31 04:37:13;;;;;;;24.38;3.58;;;;;;;;;;4962096;28;20481;-81
2022/01/31 04:39:39;;;;;;;24.55;3.78;;;;;;;;;;4945078;28;20490;-82
2022/01/31 04:42:05;;;;;;;11.77;1.90;;;;;;;;;;4953537;28;20058;-82
2022/01/31 04:44:31;;;;;;;11.55;2.47;;;;;;;;;;4947051;28;20109;-81
2022/01/31 04:46:57;;;;;;;19.33;2.88;;;;;;;;;;4980751;28;20028;-82
2022/01/31 04:49:23;;;;;;;23.30;3.72;;;;;;;;;;4946477;28;20034;-82
2022/01/31 04:51:51;;;;;;;17.35;2.88;;;;;;;;;;4966371;28;20558;-82
2022/01/31 04:54:17;;;;;;;31.75;3.25;;;;;;;;;;4947918;28;20186;-82
2022/01/31 04:56:44;;;;;;;23.10;2.17;;;;;;;;;;4949659;28;20046;-81
2022/01/31 04:59:10;;;;;;;17.70;3.70;;;;;;;;;;4950779;28;20384;-83
2022/01/31 05:01:39;;;;;;;11.85;1.73;;;;;;;;;;4964179;28;20394;-82
2022/01/31 05:04:05;;;;;;;24.60;2.88;;;;;;;;;;4951682;28;20023;-83
2022/01/31 05:06:36;;;;;;;15.32;2.35;;;;;;;;;;4946320;28;20508;-83
2022/01/31 05:09:02;;;;;;;18.10;2.33;;;;;;;;;;4950746;28;20057;-82
2022/01/31 05:11:28;;;;;;;14.30;2.15;;;;;;;;;;4948608;28;20415;-83
2022/01/31 05:13:54;;;;;;;6.40;1.50;;;;;;;;;;4949179;28;20174;-83
2022/01/31 05:16:20;;;;;;;31.52;4.00;;;;;;;;;;4962660;28;20046;-83
2022/01/31 05:18:46;;;;;;;29.60;4.00;;;;;;;;;;4947431;28;20686;-83
2022/01/31 05:21:12;;;;;;;14.85;1.88;;;;;;;;;;4948199;28;20483;-82
2022/01/31 05:23:38;;;;;;;18.27;1.58;;;;;;;;;;4961162;28;20506;-83
2022/01/31 05:26:05;;;;;;;6.35;1.63;;;;;;;;;;4966794;28;20037;-82
2022/01/31 05:28:31;;;;;;;6.10;1.42;;;;;;;;;;4946946;28;20549;-82
2022/01/31 05:30:57;;;;;;;15.18;1.48;;;;;;;;;;4951656;28;20473;-82
2022/01/31 05:33:23;;;;;;;11.23;1.45;;;;;;;;;;4948464;28;20163;-82
2022/01/31 05:35:49;;;;;;;14.23;1.98;;;;;;;;;;4949967;28;20042;-82
2022/01/31 05:38:15;;;;;;;68.07;20.08;;;;;;;;;;4941500;28;20031;-82
2022/01/31 05:40:41;;;;;;;15.60;1.70;;;;;;;;;;4949988;28;20479;-82
2022/01/31 05:43:07;;;;;;;20.42;2.58;;;;;;;;;;4941094;28;20034;-82
2022/01/31 05:45:33;;;;;;;10.23;1.55;;;;;;;;;;4947031;28;20105;-82
2022/01/31 05:47:59;;;;;;;7.80;1.77;;;;;;;;;;4952250;28;20483;-82
2022/01/31 05:50:25;;;;;;;17.63;1.95;;;;;;;;;;4965324;28;20703;-82
2022/01/31 05:52:52;;;;;;;14.57;1.90;;;;;;;;;;4950734;28;20467;-82
2022/01/31 05:55:18;;;;;;;19.92;2.28;;;;;;;;;;4937920;28;20045;-81
2022/01/31 05:57:51;;;;;;;4.43;1.38;;;;;;;;;;4953132;28;20561;-81
2022/01/31 06:00:17;;;;;;;13.43;2.22;;;;;;;;;;4947186;28;20019;-82
2022/01/31 06:02:43;;;;;;;7.13;1.15;;;;;;;;;;4949973;28;20069;-82
2022/01/31 06:05:09;;;;;;;23.27;1.75;;;;;;;;;;4963432;28;20503;-82
2022/01/31 06:07:35;;;;;;;26.42;2.20;;;;;;;;;;4951991;28;20056;-82
2022/01/31 06:10:01;;;;;;;25.67;4.30;;;;;;;;;;4964472;28;20688;-82
2022/01/31 06:12:28;;;;;;;7.88;1.30;;;;;;;;;;4964521;28;20114;-82
2022/01/31 06:14:54;;;;;;;10.43;2.03;;;;;;;;;;4950286;28;20474;-82
2022/01/31 06:17:20;;;;;;;3.92;1.17;;;;;;;;;;4950056;28;20027;-82
2022/01/31 06:19:46;;;;;;;19.58;2.22;;;;;;;;;;4969908;28;20035;-82
2022/01/31 06:22:12;;;;;;;11.45;1.63;;;;;;;;;;4953905;28;20029;-82
2022/01/31 06:24:40;;;;;;;17.75;2.35;;;;;;;;;;4983238;28;20031;-82
2022/01/31 06:27:06;;;;;;;18.80;1.90;;;;;;;;;;4950159;28;20333;-82
2022/01/31 06:29:32;;;;;;;19.95;1.73;;;;;;;;;;4955394;28;20035;-83
2022/01/31 06:31:58;;;;;;;16.80;2.00;;;;;;;;;;4979070;28;20485;-83
2022/01/31 06:34:24;;;;;;;13.70;2.67;;;;;;;;;;4951374;28;20034;-81
2022/01/31 06:36:50;;;;;;;23.17;2.83;;;;;;;;;;4968247;28;20045;-81
2022/01/31 06:39:16;;;;;;;14.40;2.22;;;;;;;;;;4966807;28;20022;-82
2022/01/31 06:41:42;;;;;;;15.82;2.05;;;;;;;;;;4952867;28;20037;-81
2022/01/31 06:44:08;;;;;;;20.88;2.35;;;;;;;;;;4967288;28;20022;-82
2022/01/31 06:46:34;;;;;;;26.35;2.22;;;;;;;;;;4983843;28;20399;-82
2022/01/31 06:49:00;;;;;;;24.20;2.80;;;;;;;;;;4980484;28;20414;-82
2022/01/31 06:51:26;;;;;;;16.48;2.60;;;;;;;;;;4946176;28;20326;-81
2022/01/31 06:53:54;;;;;;;2.95;0.90;;;;;;;;;;4952374;28;20127;-81
2022/01/31 06:56:28;;;;;;;17.05;1.98;;;;;;;;;;4949392;28;20070;-83
2022/01/31 06:58:54;;;;;;;28.85;2.67;;;;;;;;;;4970046;28;20030;-82
2022/01/31 07:01:24;;;;;;;12.85;2.05;;;;;;;;;;4967812;28;20052;-82
2022/01/31 07:03:51;;;;;;;15.70;2.40;;;;;;;;;;4968653;28;20037;-82
2022/01/31 07:06:17;;;;;;;22.58;1.90;;;;;;;;;;4987229;28;20124;-83
2022/01/31 07:08:43;;;;;;;13.00;1.65;;;;;;;;;;4973961;28;20034;-83
2022/01/31 07:11:14;;;;;;;20.30;2.05;;;;;;;;;;4970601;28;20038;-83
2022/01/31 07:13:40;;;;;;;22.23;2.80;;;;;;;;;;4973885;28;20031;-83
2022/01/31 07:16:06;;;;;;;15.77;1.92;;;;;;;;;;4977200;28;20739;-83
2022/01/31 07:18:34;;;;;;;7.22;1.33;;;;;;;;;;4989176;28;20160;-83
2022/01/31 07:21:00;;;;;;;14.98;1.52;;;;;;;;;;4986647;28;20561;-82
2022/01/31 07:23:49;;;;;;;15.82;3.45;;;;;;;;;;4970129;28;20089;-82
2022/01/31 07:26:15;;;;;;;15.57;1.98;;;;;;;;;;4988164;28;20045;-82
2022/01/31 07:28:41;;;;;;;17.35;1.77;;;;;;;;;;4981958;28;20039;-81
2022/01/31 07:31:07;;;;;;;11.55;2.25;;;;;;;;;;4970921;28;20042;-82
2022/01/31 07:33:33;;;;;;;25.50;3.50;;;;;;;;;;4972769;28;20644;-82
2022/01/31 07:35:59;;;;;;;19.08;2.30;;;;;;;;;;4978637;28;20046;-82
2022/01/31 07:38:25;;;;;;;14.73;2.60;;;;;;;;;;4960701;28;20168;-82
2022/01/31 07:40:55;;;;;;;31.05;2.33;;;;;;;;;;4987111;28;20035;-82
2022/01/31 07:43:21;;;;;;;17.38;2.22;;;;;;;;;;4971434;28;20111;-83
2022/01/31 07:45:55;;;;;;;9.00;1.40;;;;;;;;;;4986502;28;20606;-82
2022/01/31 07:48:22;;;;;;;2.47;0.88;;;;;;;;;;4970099;28;20045;-82
2022/01/31 07:50:48;;;;;;;10.02;1.65;;;;;;;;;;4966592;28;20031;-82
2022/01/31 07:53:14;;;;;;;15.75;1.77;;;;;;;;;;4968284;28;20040;-82
2022/01/31 07:55:40;;;;;;;8.60;2.20;;;;;;;;;;4967493;28;20022;-82
2022/01/31 07:58:20;;;;;;;22.98;2.10;;;;;;;;;;4955875;28;20101;-83
2022/01/31 08:00:46;;;;;;;12.07;1.70;;;;;;;;;;4948173;28;20410;-83
2022/01/31 08:03:12;;;;;;;21.27;2.05;;;;;;;;;;4947950;28;20031;-82
2022/01/31 08:05:38;;;;;;;9.98;1.48;;;;;;;;;;4949897;28;20035;-82
2022/01/31 08:08:05;;;;;;;22.02;2.03;;;;;;;;;;4948102;28;20030;-80
2022/01/31 08:10:34;;;;;;;17.52;1.83;;;;;;;;;;4948715;28;20027;-82
2022/01/31 08:13:01;;;;;;;5.43;1.10;;;;;;;;;;4945073;28;20518;-82
2022/01/31 08:15:28;;;;;;;8.68;0.98;;;;;;;;;;4949227;28;20765;-82
2022/01/31 08:17:54;;;;;;;10.73;2.22;;;;;;;;;;4945501;28;20131;-83
2022/01/31 08:20:21;;;;;;;11.70;1.38;;;;;;;;;;4964692;28;20470;-82
2022/01/31 08:22:47;;;;;;;9.55;1.23;;;;;;;;;;4949389;28;20098;-82
2022/01/31 08:25:16;;;;;;;10.18;1.85;;;;;;;;;;4946432;28;20034;-82
2022/01/31 08:27:48;;;;;;;5.45;1.35;;;;;;;;;;4952570;28;20386;-83
2022/01/31 08:30:20;;;;;;;8.02;1.67;;;;;;;;;;4961392;28;20027;-83
2022/01/31 08:32:58;;;;;;;15.88;1.95;;;;;;;;;;4968025;28;20019;-83
2022/01/31 08:38:09;;;;;;;7.68;1.13;;;;;;;;;;4969857;28;20045;-83
2022/01/31 08:40:35;;;;;;;15.95;1.60;;;;;;;;;;4946816;28;20031;-84
2022/01/31 08:43:04;;;;;;;10.85;1.38;;;;;;;;;;4952022;28;20081;-83
2022/01/31 08:45:30;;;;;;;9.68;1.85;;;;;;;;;;4951125;28;20034;-83
2022/01/31 08:47:56;;;;;;;7.55;1.77;;;;;;;;;;4947114;28;20417;-83
2022/01/31 08:50:22;;;;;;;13.63;1.77;;;;;;;;;;4967291;28;20034;-82
2022/01/31 08:52:49;;;;;;;7.97;1.73;;;;;;;;;;4945605;28;20102;-84
2022/01/31 08:55:15;;;;;;;15.23;2.00;;;;;;;;;;4967002;28;20430;-82
2022/01/31 08:57:41;;;;;;;6.35;1.33;;;;;;;;;;4967521;28;20050;-83
2022/01/31 09:00:08;;;;;;;18.48;2.45;;;;;;;;;;4948443;28;20046;-82
2022/01/31 09:02:40;;;;;;;12.25;2.13;;;;;;;;;;4979991;28;20439;-82
2022/01/31 09:05:07;;;;;;;6.70;1.40;;;;;;;;;;4966069;28;20329;-82
2022/01/31 09:07:33;;;;;;;28.42;3.10;;;;;;;;;;4949397;28;20613;-82
2022/01/31 09:10:01;;;;;;;19.95;2.20;;;;;;;;;;4953409;28;20034;-82
2022/01/31 09:12:30;;;;;;;17.45;1.95;;;;;;;;;;4951019;28;20069;-82
2022/01/31 09:14:57;;;;;;;14.60;3.00;;;;;;;;;;4960768;28;20034;-81
2022/01/31 09:17:23;;;;;;;16.88;2.05;;;;;;;;;;4981217;28;20034;-81
2022/01/31 09:19:48;;;;;;;23.88;1.95;;;;;;;;;;4964183;28;20391;-83
2022/01/31 09:22:15;;;;;;;16.10;1.85;;;;;;;;;;4980038;28;20037;-82
2022/01/31 09:24:41;;;;;;;18.70;2.15;;;;;;;;;;4977510;28;20019;-81
2022/01/31 09:27:08;;;;;;;7.85;1.63;;;;;;;;;;4966918;28;20026;-83
2022/01/31 09:29:34;;;;;;;7.85;1.08;;;;;;;;;;4949161;28;20590;-84
2022/01/31 09:32:02;;;;;;;4.78;0.77;;;;;;;;;;4979124;28;20043;-83
2022/01/31 09:34:30;;;;;;;6.57;1.27;;;;;;;;;;4948186;28;20030;-82
2022/01/31 09:36:56;;;;;;;8.07;0.80;;;;;;;;;;4949684;28;20039;-83
2022/01/31 09:39:22;;;;;;;11.02;1.15;;;;;;;;;;4970265;28;20057;-83
2022/01/31 09:41:53;;;;;;;4.97;1.00;;;;;;;;;;4966345;28;20077;-84
2022/01/31 09:48:31;;;;;;;3.45;0.77;;;;;;;;;;4910117;28;20081;-82
2022/01/31 09:50:11;;;;;;;6.60;0.88;;;;;;;;;;4963154;28;20258;-82
2022/01/31 09:52:37;;;;;;;8.50;1.67;;;;;;;;;;4960880;28;20125;-83
2022/01/31 09:55:04;;;;;;;21.13;1.20;;;;;;;;;;4948035;28;20027;-83
2022/01/31 09:57:30;;;;;;;12.20;0.50;;;;;;;;;;4952472;28;20399;-83
2022/01/31 09:59:56;;;;;;;13.52;1.35;;;;;;;;;;4947465;28;20484;-84
2022/01/31 10:02:22;;;;;;;18.48;1.58;;;;;;;;;;4967737;28;20026;-84
2022/01/31 10:04:48;;;;;;;19.27;1.48;;;;;;;;;;4946360;28;20058;-84
2022/01/31 10:07:14;;;;;;;12.10;1.80;;;;;;;;;;4966789;28;20109;-84
2022/01/31 10:09:45;;;;;;;8.63;1.90;;;;;;;;;;4950251;28;20041;-84
2022/01/31 10:12:25;;;;;;;21.02;1.83;;;;;;;;;;4945997;28;20027;-84
2022/01/31 10:17:38;;;;;;;10.10;1.75;;;;;;;;;;4964344;28;20053;-82
2022/01/31 10:20:06;;;;;;;15.98;2.28;;;;;;;;;;4965493;28;20051;-82
2022/01/31 10:22:35;;;;;;;18.02;2.80;;;;;;;;;;4943508;28;20475;-82
2022/01/31 10:25:02;;;;;;;21.45;4.18;;;;;;;;;;4947789;28;20043;-82
2022/01/31 10:27:34;;;;;;;10.50;1.95;;;;;;;;;;4944899;28;20046;-83
2022/01/31 10:30:09;;;;;;;12.02;3.70;;;;;;;;;;4958588;28;20410;-83
2022/01/31 10:32:37;;;;;;;18.70;2.08;;;;;;;;;;4950788;28;20087;-82
2022/01/31 10:35:06;;;;;;;18.65;4.07;;;;;;;;;;4960479;28;20073;-82
2022/01/31 10:37:34;;;;;;;14.38;2.13;;;;;;;;;;4948046;28;20766;-83
2022/01/31 10:54:08;;;;;;;8.88;3.22;;;;;;;;;;4965456;28;20041;-84
2022/01/31 10:56:40;;;;;;;9.63;1.95;;;;;;;;;;4962681;28;20503;-83
2022/01/31 10:59:17;;;;;;;23.98;2.58;;;;;;;;;;4970736;28;20539;-83
2022/01/31 11:01:45;;;;;;;18.10;6.13;;;;;;;;;;4983537;28;20038;-84
2022/01/31 11:04:14;;;;;;;14.15;1.98;;;;;;;;;;4990485;28;20037;-83
2022/01/31 11:06:40;;;;;;;13.88;6.22;;;;;;;;;;5000522;28;20030;-83
2022/01/31 11:09:10;;;;;;;13.98;6.00;;;;;;;;;;4984799;28;20026;-84
2022/01/31 11:11:40;;;;;;;20.48;6.25;;;;;;;;;;4989708;28;20031;-83
2022/01/31 11:14:07;;;;;;;15.20;5.93;;;;;;;;;;4987240;28;20026;-83
2022/01/31 11:16:34;;;;;;;14.00;4.82;;;;;;;;;;4991081;28;20061;-84
2022/01/31 11:19:03;;;;;;;10.57;2.35;;;;;;;;;;4965736;28;20630;-84
2022/01/31 11:21:33;;;;;;;21.95;5.57;;;;;;;;;;4972944;28;20392;-84
2022/01/31 11:24:02;;;;;;;5.70;3.70;;;;;;;;;;4966976;28;20049;-84
2022/01/31 11:26:39;;;;;;;18.40;2.83;;;;;;;;;;4971106;28;20121;-83
2022/01/31 11:29:08;;;;;;;15.23;3.65;;;;;;;;;;4963150;28;20582;-84
2022/01/31 11:31:38;;;;;;;12.88;3.67;;;;;;;;;;4992430;28;20240;-85
2022/01/31 11:34:05;;;;;;;23.55;3.75;;;;;;;;;;4986564;28;20552;-85
2022/01/31 11:36:33;;;;;;;8.32;2.35;;;;;;;;;;4971675;28;20046;-84
2022/01/31 11:39:00;;;;;;;45.70;3.97;;;;;;;;;;4963392;28;20031;-85
2022/01/31 11:41:26;;;;;;;12.00;4.97;;;;;;;;;;4959369;28;20039;-84
2022/01/31 11:44:01;;;;;;;21.40;3.28;;;;;;;;;;4972011;28;20058;-85
2022/01/31 11:46:28;;;;;;;19.27;4.18;;;;;;;;;;4964247;28;20053;-85
2022/01/31 11:48:54;;;;;;;14.55;2.85;;;;;;;;;;4974655;28;20051;-85
2022/01/31 11:51:21;;;;;;;19.77;3.92;;;;;;;;;;4989166;28;20426;-85
2022/01/31 11:53:47;;;;;;;17.83;3.17;;;;;;;;;;4986715;28;20625;-84
2022/01/31 11:56:18;;;;;;;23.85;3.25;;;;;;;;;;4972697;28;20022;-85
2022/01/31 11:58:53;;;;;;;16.50;3.03;;;;;;;;;;4959341;28;20479;-85
2022/01/31 12:01:21;;;;;;;20.23;2.75;;;;;;;;;;4949536;28;20046;-85
2022/01/31 12:03:52;;;;;;;12.57;2.03;;;;;;;;;;4967352;28;20149;-84
2022/01/31 12:06:25;;;;;;;12.43;2.70;;;;;;;;;;4952456;28;20042;-83
2022/01/31 12:08:52;;;;;;;17.70;2.97;;;;;;;;;;4962406;28;20063;-85
2022/01/31 12:11:25;;;;;;;15.27;3.25;;;;;;;;;;4952612;28;20043;-85
2022/01/31 12:13:59;;;;;;;22.25;3.13;;;;;;;;;;4946234;28;20050;-86
2022/01/31 12:16:42;;;;;;;13.05;2.50;;;;;;;;;;4955372;28;20055;-85
2022/01/31 12:22:00;;;;;;;21.98;3.30;;;;;;;;;;4963319;28;20469;-84
2022/01/31 12:24:40;;;;;;;18.30;3.17;;;;;;;;;;4969951;28;20023;-85
2022/01/31 12:27:23;;;;;;;11.05;2.17;;;;;;;;;;4946073;28;20037;-85
2022/01/31 12:29:51;;;;;;;20.50;2.50;;;;;;;;;;4948832;28;20030;-84
2022/01/31 12:32:17;;;;;;;19.20;3.42;;;;;;;;;;4965556;28;20038;-85
2022/01/31 12:34:53;;;;;;;17.38;3.28;;;;;;;;;;4944339;28;20035;-85
2022/01/31 12:37:38;;;;;;;13.82;2.45;;;;;;;;;;4964124;28;20033;-85
2022/01/31 12:40:10;;;;;;;17.17;2.75;;;;;;;;;;4945741;28;20142;-85
2022/01/31 12:43:12;;;;;;;11.25;2.38;;;;;;;;;;4963757;28;20035;-84
2022/01/31 12:45:30;;;;;;;25.25;2.83;;;;;;;;;;4965762;28;20117;-84
2022/01/31 12:48:19;;;;;;;18.35;2.42;;;;;;;;;;4964581;28;20086;-86
2022/01/31 12:50:59;;;;;;;15.00;3.15;;;;;;;;;;4966310;28;20063;-85
2022/01/31 12:53:37;;;;;;;22.15;3.03;;;;;;;;;;4979394;28;20482;-86
2022/01/31 12:56:09;;;;;;;18.75;2.95;;;;;;;;;;4980331;28;20042;-85
2022/01/31 12:58:56;;;;;;;17.90;3.55;;;;;;;;;;4968117;28;20605;-85
2022/01/31 13:01:27;;;;;;;28.02;3.53;;;;;;;;;;4962301;28;20029;-85
2022/01/31 13:03:58;;;;;;;19.85;3.28;;;;;;;;;;4947843;28;20510;-84
2022/01/31 13:06:28;;;;;;;18.35;3.30;;;;;;;;;;4966277;28;20037;-85
2022/01/31 13:08:54;;;;;;;23.83;3.33;;;;;;;;;;4967663;28;20039;-84
2022/01/31 13:11:21;;;;;;;24.27;3.47;;;;;;;;;;4949974;28;20102;-85
2022/01/31 13:13:47;;;;;;;13.07;2.78;;;;;;;;;;4946262;28;20035;-85
2022/01/31 13:16:14;;;;;;;16.98;2.67;;;;;;;;;;4952001;28;20435;-84
2022/01/31 13:18:40;;;;;;;22.30;3.40;;;;;;;;;;4964849;28;20297;-84
2022/01/31 13:21:09;;;;;;;24.38;3.00;;;;;;;;;;4969191;28;20022;-84
2022/01/31 13:23:38;;;;;;;20.65;2.80;;;;;;;;;;4945422;28;20038;-84
2022/01/31 13:26:05;;;;;;;23.00;3.45;;;;;;;;;;4973823;28;20058;-85
2022/01/31 13:28:31;;;;;;;23.20;3.47;;;;;;;;;;4957907;28;20390;-84
2022/01/31 13:31:07;;;;;;;17.45;2.42;;;;;;;;;;4968309;28;20508;-85
2022/01/31 13:33:43;;;;;;;21.00;3.42;;;;;;;;;;4949731;28;20046;-84
2022/01/31 13:36:09;;;;;;;22.05;4.15;;;;;;;;;;4974555;28;22906;-84
2022/01/31 13:38:35;;;;;;;22.15;1.88;;;;;;;;;;4948609;28;20035;-83
2022/01/31 13:41:03;;;;;;;25.40;2.88;;;;;;;;;;4948514;28;20031;-84
2022/01/31 13:43:38;;;;;;;19.92;2.88;;;;;;;;;;4968265;28;20871;-85
2022/01/31 13:46:26;;;;;;;23.48;3.50;;;;;;;;;;4959500;28;20065;-85
2022/01/31 13:49:00;;;;;;;16.25;2.83;;;;;;;;;;4946076;28;20023;-84
2022/01/31 13:51:40;;;;;;;19.40;3.75;;;;;;;;;;4948917;28;20114;-84
2022/01/31 13:54:12;;;;;;;35.72;5.60;;;;;;;;;;4964926;28;20154;-84
2022/01/31 13:56:39;;;;;;;31.73;3.70;;;;;;;;;;4965744;28;20038;-84
2022/01/31 13:59:12;;;;;;;26.83;3.58;;;;;;;;;;4949835;28;20077;-84
2022/01/31 14:01:38;;;;;;;17.20;3.35;;;;;;;;;;4964705;28;20530;-84
2022/01/31 14:04:05;;;;;;;19.45;3.65;;;;;;;;;;4946345;28;20027;-85
2022/01/31 14:06:35;;;;;;;22.15;3.28;;;;;;;;;;4949107;28;20037;-84
2022/01/31 14:09:02;;;;;;;26.45;5.72;;;;;;;;;;4984429;28;20566;-84
2022/01/31 14:11:34;;;;;;;28.85;3.20;;;;;;;;;;4945454;28;20065;-84
2022/01/31 14:14:01;;;;;;;9.73;2.15;;;;;;;;;;4966954;28;20478;-83
2022/01/31 14:16:31;;;;;;;15.18;2.63;;;;;;;;;;4978349;28;20050;-82
2022/01/31 14:19:08;;;;;;;16.38;2.85;;;;;;;;;;4963794;28;20041;-82
2022/01/31 14:21:38;;;;;;;16.25;2.33;;;;;;;;;;4944755;28;20037;-82
2022/01/31 14:24:05;;;;;;;15.25;3.78;;;;;;;;;;4948575;28;20043;-83
2022/01/31 14:26:34;;;;;;;19.67;2.65;;;;;;;;;;4966207;28;20038;-83
2022/01/31 14:29:02;;;;;;;18.10;2.53;;;;;;;;;;4963645;28;20039;-82
2022/01/31 14:31:35;;;;;;;10.98;2.00;;;;;;;;;;4947963;28;20066;-82
2022/01/31 14:34:05;;;;;;;11.18;1.70;;;;;;;;;;4963788;28;20110;-82
2022/01/31 14:36:50;;;;;;;20.10;2.22;;;;;;;;;;4946124;28;20046;-83
2022/01/31 14:47:23;;;;;;;19.17;4.88;;;;;;;;;;4968529;28;20569;-83
2022/01/31 14:50:08;;;;;;;25.60;6.38;;;;;;;;;;4949730;28;20268;-83
2022/01/31 14:52:34;;;;;;;24.55;6.40;;;;;;;;;;4951990;28;20034;-84
2022/01/31 14:55:02;;;;;;;19.63;8.00;;;;;;;;;;4968970;28;20619;-83
2022/01/31 14:57:28;;;;;;;12.70;5.00;;;;;;;;;;4948362;28;20023;-83
2022/01/31 14:59:55;;;;;;;15.20;5.85;;;;;;;;;;4968582;28;20105;-83
2022/01/31 15:02:21;;;;;;;24.20;6.90;;;;;;;;;;4986527;28;20109;-83
2022/01/31 15:04:47;;;;;;;20.85;6.93;;;;;;;;;;4969232;28;21213;-83
2022/01/31 15:07:13;;;;;;;20.77;7.20;;;;;;;;;;4972084;28;20096;-84
2022/01/31 15:09:40;;;;;;;20.40;6.43;;;;;;;;;;4969285;28;20557;-83
2022/01/31 15:12:06;;;;;;;16.40;5.82;;;;;;;;;;5001980;28;20132;-84